sensor_id;sensor_type;location;lat;lon;timestamp;temperature;humidity
8957;DHT22;4513;50.054;8.230;2022-07-26T00:02:24;22.00;90.10
8957;DHT22;4513;50.054;8.230;2022-07-26T00:04:52;22.00;90.10
8957;DHT22;4513;50.054;8.230;2022-07-26T00:07:19;21.90;90.30
8957;DHT22;4513;50.054;8.230;2022-07-26T00:09:46;21.80;90.40
8957;DHT22;4513;50.054;8.230;2022-07-26T00:12:13;21.80;90.60
8957;DHT22;4513;50.054;8.230;2022-07-26T00:14:40;21.70;90.70
8957;DHT22;4513;50.054;8.230;2022-07-26T00:17:07;21.60;90.90
8957;DHT22;4513;50.054;8.230;2022-07-26T00:19:33;21.60;90.90
8957;DHT22;4513;50.054;8.230;2022-07-26T00:22:02;21.60;91.70
8957;DHT22;4513;50.054;8.230;2022-07-26T00:24:46;21.50;91.60
8957;DHT22;4513;50.054;8.230;2022-07-26T00:27:13;21.40;91.70
8957;DHT22;4513;50.054;8.230;2022-07-26T00:29:40;21.50;91.70
8957;DHT22;4513;50.054;8.230;2022-07-26T00:32:07;21.40;91.70
8957;DHT22;4513;50.054;8.230;2022-07-26T00:34:34;21.50;91.20
8957;DHT22;4513;50.054;8.230;2022-07-26T00:37:02;21.60;91.40
8957;DHT22;4513;50.054;8.230;2022-07-26T00:39:29;21.60;91.50
8957;DHT22;4513;50.054;8.230;2022-07-26T00:41:56;21.60;90.90
8957;DHT22;4513;50.054;8.230;2022-07-26T00:44:22;21.60;90.90
8957;DHT22;4513;50.054;8.230;2022-07-26T00:46:49;21.70;90.90
8957;DHT22;4513;50.054;8.230;2022-07-26T00:49:17;21.70;90.80
8957;DHT22;4513;50.054;8.230;2022-07-26T00:51:44;21.70;90.60
8957;DHT22;4513;50.054;8.230;2022-07-26T00:54:12;21.60;90.60
8957;DHT22;4513;50.054;8.230;2022-07-26T00:56:39;21.60;91.00
8957;DHT22;4513;50.054;8.230;2022-07-26T00:59:06;21.50;91.10
8957;DHT22;4513;50.054;8.230;2022-07-26T01:01:33;21.50;91.00
8957;DHT22;4513;50.054;8.230;2022-07-26T01:04:00;21.60;90.80
8957;DHT22;4513;50.054;8.230;2022-07-26T01:06:27;21.60;90.40
8957;DHT22;4513;50.054;8.230;2022-07-26T01:08:54;21.60;89.70
8957;DHT22;4513;50.054;8.230;2022-07-26T01:11:22;21.70;90.30
8957;DHT22;4513;50.054;8.230;2022-07-26T01:13:50;21.70;90.20
8957;DHT22;4513;50.054;8.230;2022-07-26T01:16:17;21.70;90.30
8957;DHT22;4513;50.054;8.230;2022-07-26T01:18:44;21.60;90.60
8957;DHT22;4513;50.054;8.230;2022-07-26T01:21:11;21.60;90.40
8957;DHT22;4513;50.054;8.230;2022-07-26T01:23:39;21.60;90.40
8957;DHT22;4513;50.054;8.230;2022-07-26T01:26:06;21.60;90.70
8957;DHT22;4513;50.054;8.230;2022-07-26T01:28:35;21.60;90.60
8957;DHT22;4513;50.054;8.230;2022-07-26T01:31:03;21.60;90.70
8957;DHT22;4513;50.054;8.230;2022-07-26T01:33:30;21.50;90.90
8957;DHT22;4513;50.054;8.230;2022-07-26T01:35:56;21.50;91.20
8957;DHT22;4513;50.054;8.230;2022-07-26T01:38:24;21.50;90.90
8957;DHT22;4513;50.054;8.230;2022-07-26T01:40:52;21.50;91.20
8957;DHT22;4513;50.054;8.230;2022-07-26T01:43:19;21.40;91.20
8957;DHT22;4513;50.054;8.230;2022-07-26T01:45:46;21.50;91.30
8957;DHT22;4513;50.054;8.230;2022-07-26T01:48:13;21.50;91.30
8957;DHT22;4513;50.054;8.230;2022-07-26T01:50:40;21.40;91.40
8957;DHT22;4513;50.054;8.230;2022-07-26T01:53:07;21.40;91.30
8957;DHT22;4513;50.054;8.230;2022-07-26T01:55:34;21.40;91.20
8957;DHT22;4513;50.054;8.230;2022-07-26T01:58:02;21.30;91.20
8957;DHT22;4513;50.054;8.230;2022-07-26T02:00:30;21.20;91.30
8957;DHT22;4513;50.054;8.230;2022-07-26T02:02:57;21.20;91.80
8957;DHT22;4513;50.054;8.230;2022-07-26T02:05:24;21.20;91.60
8957;DHT22;4513;50.054;8.230;2022-07-26T02:07:51;21.20;91.70
8957;DHT22;4513;50.054;8.230;2022-07-26T02:10:18;21.30;91.60
8957;DHT22;4513;50.054;8.230;2022-07-26T02:12:45;21.20;91.50
8957;DHT22;4513;50.054;8.230;2022-07-26T02:15:14;21.20;91.60
8957;DHT22;4513;50.054;8.230;2022-07-26T02:17:41;21.20;91.60
8957;DHT22;4513;50.054;8.230;2022-07-26T02:20:09;21.20;92.20
8957;DHT22;4513;50.054;8.230;2022-07-26T02:22:36;21.10;92.30
8957;DHT22;4513;50.054;8.230;2022-07-26T02:25:04;21.00;92.80
8957;DHT22;4513;50.054;8.230;2022-07-26T02:27:31;20.90;92.90
8957;DHT22;4513;50.054;8.230;2022-07-26T02:29:58;21.00;92.70
8957;DHT22;4513;50.054;8.230;2022-07-26T02:32:26;21.00;92.80
8957;DHT22;4513;50.054;8.230;2022-07-26T02:34:53;20.90;93.20
8957;DHT22;4513;50.054;8.230;2022-07-26T02:37:35;20.90;93.00
8957;DHT22;4513;50.054;8.230;2022-07-26T02:40:03;20.90;92.90
8957;DHT22;4513;50.054;8.230;2022-07-26T02:42:30;20.80;92.90
8957;DHT22;4513;50.054;8.230;2022-07-26T02:44:57;20.70;93.50
8957;DHT22;4513;50.054;8.230;2022-07-26T02:47:25;20.70;93.30
8957;DHT22;4513;50.054;8.230;2022-07-26T02:49:52;20.60;93.40
8957;DHT22;4513;50.054;8.230;2022-07-26T02:52:19;20.60;93.00
8957;DHT22;4513;50.054;8.230;2022-07-26T02:54:46;20.50;93.10
8957;DHT22;4513;50.054;8.230;2022-07-26T02:57:13;20.50;93.00
8957;DHT22;4513;50.054;8.230;2022-07-26T02:59:40;20.50;92.80
8957;DHT22;4513;50.054;8.230;2022-07-26T03:02:07;20.60;92.90
8957;DHT22;4513;50.054;8.230;2022-07-26T03:04:35;20.60;92.90
8957;DHT22;4513;50.054;8.230;2022-07-26T03:07:02;20.50;92.90
8957;DHT22;4513;50.054;8.230;2022-07-26T03:09:29;20.50;93.20
8957;DHT22;4513;50.054;8.230;2022-07-26T03:11:56;20.30;93.30
8957;DHT22;4513;50.054;8.230;2022-07-26T03:14:23;20.30;93.60
8957;DHT22;4513;50.054;8.230;2022-07-26T03:16:50;20.20;93.50
8957;DHT22;4513;50.054;8.230;2022-07-26T03:19:17;20.20;93.70
8957;DHT22;4513;50.054;8.230;2022-07-26T03:21:45;20.20;93.80
8957;DHT22;4513;50.054;8.230;2022-07-26T03:24:11;20.20;93.70
8957;DHT22;4513;50.054;8.230;2022-07-26T03:26:38;20.20;93.70
8957;DHT22;4513;50.054;8.230;2022-07-26T03:29:05;20.10;93.60
8957;DHT22;4513;50.054;8.230;2022-07-26T03:31:32;20.10;93.70
8957;DHT22;4513;50.054;8.230;2022-07-26T03:33:59;20.10;93.70
8957;DHT22;4513;50.054;8.230;2022-07-26T03:36:25;20.00;93.60
8957;DHT22;4513;50.054;8.230;2022-07-26T03:38:53;20.00;93.70
8957;DHT22;4513;50.054;8.230;2022-07-26T03:41:20;19.90;93.80
8957;DHT22;4513;50.054;8.230;2022-07-26T03:43:47;19.90;94.00
8957;DHT22;4513;50.054;8.230;2022-07-26T03:46:14;19.90;94.20
8957;DHT22;4513;50.054;8.230;2022-07-26T03:48:41;19.80;93.90
8957;DHT22;4513;50.054;8.230;2022-07-26T03:51:07;19.80;93.80
8957;DHT22;4513;50.054;8.230;2022-07-26T03:53:34;19.80;93.80
8957;DHT22;4513;50.054;8.230;2022-07-26T03:56:03;19.80;93.90
8957;DHT22;4513;50.054;8.230;2022-07-26T03:58:47;19.70;93.80
8957;DHT22;4513;50.054;8.230;2022-07-26T04:01:14;19.70;93.90
8957;DHT22;4513;50.054;8.230;2022-07-26T04:03:41;19.60;93.90
8957;DHT22;4513;50.054;8.230;2022-07-26T04:06:08;19.70;93.90
8957;DHT22;4513;50.054;8.230;2022-07-26T04:08:35;19.70;93.90
8957;DHT22;4513;50.054;8.230;2022-07-26T04:11:04;19.70;93.90
8957;DHT22;4513;50.054;8.230;2022-07-26T04:13:30;19.70;94.00
8957;DHT22;4513;50.054;8.230;2022-07-26T04:15:57;19.60;94.00
8957;DHT22;4513;50.054;8.230;2022-07-26T04:18:24;19.60;94.40
8957;DHT22;4513;50.054;8.230;2022-07-26T04:20:51;19.50;94.50
8957;DHT22;4513;50.054;8.230;2022-07-26T04:23:18;19.40;94.70
8957;DHT22;4513;50.054;8.230;2022-07-26T04:25:45;19.40;94.70
8957;DHT22;4513;50.054;8.230;2022-07-26T04:28:13;19.40;94.90
8957;DHT22;4513;50.054;8.230;2022-07-26T04:30:40;19.40;94.80
8957;DHT22;4513;50.054;8.230;2022-07-26T04:33:07;19.40;95.00
8957;DHT22;4513;50.054;8.230;2022-07-26T04:35:34;19.50;94.70
8957;DHT22;4513;50.054;8.230;2022-07-26T04:38:01;19.40;94.70
8957;DHT22;4513;50.054;8.230;2022-07-26T04:40:29;19.50;94.80
8957;DHT22;4513;50.054;8.230;2022-07-26T04:42:58;19.40;95.00
8957;DHT22;4513;50.054;8.230;2022-07-26T04:45:27;19.30;95.30
8957;DHT22;4513;50.054;8.230;2022-07-26T04:47:54;19.30;95.10
8957;DHT22;4513;50.054;8.230;2022-07-26T04:50:23;19.40;95.00
8957;DHT22;4513;50.054;8.230;2022-07-26T04:52:50;19.30;95.40
8957;DHT22;4513;50.054;8.230;2022-07-26T04:55:17;19.30;95.40
8957;DHT22;4513;50.054;8.230;2022-07-26T04:57:45;19.30;95.10
8957;DHT22;4513;50.054;8.230;2022-07-26T05:00:16;19.30;95.60
8957;DHT22;4513;50.054;8.230;2022-07-26T05:02:47;19.40;95.30
8957;DHT22;4513;50.054;8.230;2022-07-26T05:05:14;19.30;95.40
8957;DHT22;4513;50.054;8.230;2022-07-26T05:07:42;19.30;95.30
8957;DHT22;4513;50.054;8.230;2022-07-26T05:10:10;19.40;95.50
8957;DHT22;4513;50.054;8.230;2022-07-26T05:12:37;19.40;95.40
8957;DHT22;4513;50.054;8.230;2022-07-26T05:15:06;19.50;95.10
8957;DHT22;4513;50.054;8.230;2022-07-26T05:17:33;19.60;95.20
8957;DHT22;4513;50.054;8.230;2022-07-26T05:20:01;19.60;94.90
8957;DHT22;4513;50.054;8.230;2022-07-26T05:22:28;19.50;95.10
8957;DHT22;4513;50.054;8.230;2022-07-26T05:24:55;19.50;94.90
8957;DHT22;4513;50.054;8.230;2022-07-26T05:27:23;19.60;94.90
8957;DHT22;4513;50.054;8.230;2022-07-26T05:29:50;19.70;94.80
8957;DHT22;4513;50.054;8.230;2022-07-26T05:32:17;19.70;94.80
8957;DHT22;4513;50.054;8.230;2022-07-26T05:34:44;19.70;94.60
8957;DHT22;4513;50.054;8.230;2022-07-26T05:37:13;19.70;94.50
8957;DHT22;4513;50.054;8.230;2022-07-26T05:39:39;19.70;94.70
8957;DHT22;4513;50.054;8.230;2022-07-26T05:42:06;19.70;94.70
8957;DHT22;4513;50.054;8.230;2022-07-26T05:44:33;19.70;95.00
8957;DHT22;4513;50.054;8.230;2022-07-26T05:47:01;19.70;95.00
8957;DHT22;4513;50.054;8.230;2022-07-26T05:49:28;19.70;94.70
8957;DHT22;4513;50.054;8.230;2022-07-26T05:51:55;19.70;94.70
8957;DHT22;4513;50.054;8.230;2022-07-26T05:54:23;19.70;95.00
8957;DHT22;4513;50.054;8.230;2022-07-26T05:56:52;19.80;95.00
8957;DHT22;4513;50.054;8.230;2022-07-26T05:59:18;19.90;95.00
8957;DHT22;4513;50.054;8.230;2022-07-26T06:01:45;20.00;94.90
8957;DHT22;4513;50.054;8.230;2022-07-26T06:04:12;20.00;94.60
8957;DHT22;4513;50.054;8.230;2022-07-26T06:06:39;20.10;94.40
8957;DHT22;4513;50.054;8.230;2022-07-26T06:09:06;20.10;94.30
8957;DHT22;4513;50.054;8.230;2022-07-26T06:11:34;20.20;94.20
8957;DHT22;4513;50.054;8.230;2022-07-26T06:14:01;20.20;94.60
8957;DHT22;4513;50.054;8.230;2022-07-26T06:16:28;20.20;94.40
8957;DHT22;4513;50.054;8.230;2022-07-26T06:18:55;20.40;94.10
8957;DHT22;4513;50.054;8.230;2022-07-26T06:21:22;20.50;93.80
8957;DHT22;4513;50.054;8.230;2022-07-26T06:23:49;20.50;94.00
8957;DHT22;4513;50.054;8.230;2022-07-26T06:26:16;20.40;94.00
8957;DHT22;4513;50.054;8.230;2022-07-26T06:28:45;20.50;94.10
8957;DHT22;4513;50.054;8.230;2022-07-26T06:31:14;20.60;93.90
8957;DHT22;4513;50.054;8.230;2022-07-26T06:33:42;20.60;93.80
8957;DHT22;4513;50.054;8.230;2022-07-26T06:36:09;20.70;93.70
8957;DHT22;4513;50.054;8.230;2022-07-26T06:38:36;20.80;93.70
8957;DHT22;4513;50.054;8.230;2022-07-26T06:41:03;21.00;93.10
8957;DHT22;4513;50.054;8.230;2022-07-26T06:43:30;21.10;92.60
8957;DHT22;4513;50.054;8.230;2022-07-26T06:45:58;21.10;92.80
8957;DHT22;4513;50.054;8.230;2022-07-26T06:48:25;21.20;92.80
8957;DHT22;4513;50.054;8.230;2022-07-26T06:50:52;21.30;92.60
8957;DHT22;4513;50.054;8.230;2022-07-26T06:53:19;21.40;92.40
8957;DHT22;4513;50.054;8.230;2022-07-26T06:55:46;21.40;92.50
8957;DHT22;4513;50.054;8.230;2022-07-26T06:58:13;21.50;92.30
8957;DHT22;4513;50.054;8.230;2022-07-26T07:00:40;21.50;92.50
8957;DHT22;4513;50.054;8.230;2022-07-26T07:03:08;21.50;92.30
8957;DHT22;4513;50.054;8.230;2022-07-26T07:05:35;21.50;92.60
8957;DHT22;4513;50.054;8.230;2022-07-26T07:08:02;21.30;92.30
8957;DHT22;4513;50.054;8.230;2022-07-26T07:10:28;21.30;92.50
8957;DHT22;4513;50.054;8.230;2022-07-26T07:12:55;21.40;92.00
8957;DHT22;4513;50.054;8.230;2022-07-26T07:15:22;21.50;91.90
8957;DHT22;4513;50.054;8.230;2022-07-26T07:17:49;21.60;92.20
8957;DHT22;4513;50.054;8.230;2022-07-26T07:20:18;21.80;92.00
8957;DHT22;4513;50.054;8.230;2022-07-26T07:22:45;21.80;91.80
8957;DHT22;4513;50.054;8.230;2022-07-26T07:25:11;21.70;91.40
8957;DHT22;4513;50.054;8.230;2022-07-26T07:27:38;21.80;91.00
8957;DHT22;4513;50.054;8.230;2022-07-26T07:30:06;21.90;91.00
8957;DHT22;4513;50.054;8.230;2022-07-26T07:32:35;21.90;91.10
8957;DHT22;4513;50.054;8.230;2022-07-26T07:35:02;21.90;90.90
8957;DHT22;4513;50.054;8.230;2022-07-26T07:37:33;21.90;90.90
8957;DHT22;4513;50.054;8.230;2022-07-26T07:40:00;22.00;91.30
8957;DHT22;4513;50.054;8.230;2022-07-26T07:42:28;22.10;91.00
8957;DHT22;4513;50.054;8.230;2022-07-26T07:44:55;22.20;91.10
8957;DHT22;4513;50.054;8.230;2022-07-26T07:47:22;22.20;90.40
8957;DHT22;4513;50.054;8.230;2022-07-26T07:49:49;22.20;90.60
8957;DHT22;4513;50.054;8.230;2022-07-26T07:52:15;22.40;90.50
8957;DHT22;4513;50.054;8.230;2022-07-26T07:54:44;22.50;90.30
8957;DHT22;4513;50.054;8.230;2022-07-26T07:57:11;22.50;90.20
8957;DHT22;4513;50.054;8.230;2022-07-26T07:59:40;22.60;90.30
8957;DHT22;4513;50.054;8.230;2022-07-26T08:02:07;22.70;90.00
8957;DHT22;4513;50.054;8.230;2022-07-26T08:04:34;22.70;90.50
8957;DHT22;4513;50.054;8.230;2022-07-26T08:07:01;23.00;89.60
8957;DHT22;4513;50.054;8.230;2022-07-26T08:09:28;23.10;88.20
8957;DHT22;4513;50.054;8.230;2022-07-26T08:11:56;23.30;88.30
8957;DHT22;4513;50.054;8.230;2022-07-26T08:14:23;23.40;87.50
8957;DHT22;4513;50.054;8.230;2022-07-26T08:16:49;23.50;85.70
8957;DHT22;4513;50.054;8.230;2022-07-26T08:19:18;23.70;86.40
8957;DHT22;4513;50.054;8.230;2022-07-26T08:21:45;23.90;87.10
8957;DHT22;4513;50.054;8.230;2022-07-26T08:24:12;23.90;86.40
8957;DHT22;4513;50.054;8.230;2022-07-26T08:26:39;23.90;85.50
8957;DHT22;4513;50.054;8.230;2022-07-26T08:29:08;24.10;85.50
8957;DHT22;4513;50.054;8.230;2022-07-26T08:31:35;23.90;85.50
8957;DHT22;4513;50.054;8.230;2022-07-26T08:34:02;23.60;86.80
8957;DHT22;4513;50.054;8.230;2022-07-26T08:36:29;23.60;84.30
8957;DHT22;4513;50.054;8.230;2022-07-26T08:38:56;23.60;84.30
8957;DHT22;4513;50.054;8.230;2022-07-26T08:41:22;23.80;83.80
8957;DHT22;4513;50.054;8.230;2022-07-26T08:43:49;24.10;82.60
8957;DHT22;4513;50.054;8.230;2022-07-26T08:46:17;24.20;82.10
8957;DHT22;4513;50.054;8.230;2022-07-26T08:48:44;24.20;81.60
8957;DHT22;4513;50.054;8.230;2022-07-26T08:51:12;24.40;80.90
8957;DHT22;4513;50.054;8.230;2022-07-26T08:53:39;24.70;80.30
8957;DHT22;4513;50.054;8.230;2022-07-26T08:56:06;25.10;80.20
8957;DHT22;4513;50.054;8.230;2022-07-26T08:58:34;25.30;78.00
8957;DHT22;4513;50.054;8.230;2022-07-26T09:01:06;25.10;77.50
8957;DHT22;4513;50.054;8.230;2022-07-26T09:03:34;24.90;78.40
8957;DHT22;4513;50.054;8.230;2022-07-26T09:06:14;25.50;78.00
8957;DHT22;4513;50.054;8.230;2022-07-26T09:08:42;26.70;74.70
8957;DHT22;4513;50.054;8.230;2022-07-26T09:11:29;27.90;71.20
8957;DHT22;4513;50.054;8.230;2022-07-26T09:13:58;28.70;68.20
8957;DHT22;4513;50.054;8.230;2022-07-26T09:16:26;28.30;69.20
8957;DHT22;4513;50.054;8.230;2022-07-26T09:18:55;27.70;71.30
8957;DHT22;4513;50.054;8.230;2022-07-26T09:21:39;27.10;72.30
8957;DHT22;4513;50.054;8.230;2022-07-26T09:24:06;27.00;71.40
8957;DHT22;4513;50.054;8.230;2022-07-26T09:26:33;26.80;73.10
8957;DHT22;4513;50.054;8.230;2022-07-26T09:29:07;26.70;73.50
8957;DHT22;4513;50.054;8.230;2022-07-26T09:31:34;26.70;73.90
8957;DHT22;4513;50.054;8.230;2022-07-26T09:34:06;27.30;73.70
8957;DHT22;4513;50.054;8.230;2022-07-26T09:36:32;27.40;72.80
8957;DHT22;4513;50.054;8.230;2022-07-26T09:39:15;27.00;71.40
8957;DHT22;4513;50.054;8.230;2022-07-26T09:41:42;27.20;72.20
8957;DHT22;4513;50.054;8.230;2022-07-26T09:44:20;28.10;70.00
8957;DHT22;4513;50.054;8.230;2022-07-26T09:46:51;28.80;66.40
8957;DHT22;4513;50.054;8.230;2022-07-26T09:49:21;29.30;66.20
8957;DHT22;4513;50.054;8.230;2022-07-26T09:51:49;29.50;65.20
8957;DHT22;4513;50.054;8.230;2022-07-26T09:54:17;29.60;65.80
8957;DHT22;4513;50.054;8.230;2022-07-26T09:56:46;29.70;64.10
8957;DHT22;4513;50.054;8.230;2022-07-26T09:59:15;29.40;63.00
8957;DHT22;4513;50.054;8.230;2022-07-26T10:01:43;29.40;63.70
8957;DHT22;4513;50.054;8.230;2022-07-26T10:04:11;29.30;65.20
8957;DHT22;4513;50.054;8.230;2022-07-26T10:06:40;29.60;65.30
8957;DHT22;4513;50.054;8.230;2022-07-26T10:09:08;29.60;65.60
8957;DHT22;4513;50.054;8.230;2022-07-26T10:11:40;29.80;65.40
8957;DHT22;4513;50.054;8.230;2022-07-26T10:14:36;29.70;65.90
8957;DHT22;4513;50.054;8.230;2022-07-26T10:20:10;29.30;66.50
8957;DHT22;4513;50.054;8.230;2022-07-26T10:22:43;29.20;65.10
8957;DHT22;4513;50.054;8.230;2022-07-26T10:28:23;27.70;67.80
8957;DHT22;4513;50.054;8.230;2022-07-26T10:30:51;27.90;67.90
8957;DHT22;4513;50.054;8.230;2022-07-26T10:33:21;28.30;68.20
8957;DHT22;4513;50.054;8.230;2022-07-26T10:35:52;28.80;67.00
8957;DHT22;4513;50.054;8.230;2022-07-26T10:38:25;28.20;67.80
8957;DHT22;4513;50.054;8.230;2022-07-26T10:40:58;27.50;69.70
8957;DHT22;4513;50.054;8.230;2022-07-26T10:43:25;26.90;71.50
8957;DHT22;4513;50.054;8.230;2022-07-26T10:48:56;26.10;73.50
8957;DHT22;4513;50.054;8.230;2022-07-26T10:51:25;26.10;73.30
8957;DHT22;4513;50.054;8.230;2022-07-26T10:54:00;26.80;73.40
8957;DHT22;4513;50.054;8.230;2022-07-26T10:56:27;27.50;71.20
8957;DHT22;4513;50.054;8.230;2022-07-26T10:58:54;28.00;69.60
8957;DHT22;4513;50.054;8.230;2022-07-26T11:01:21;28.00;67.50
8957;DHT22;4513;50.054;8.230;2022-07-26T11:03:48;28.20;69.10
8957;DHT22;4513;50.054;8.230;2022-07-26T11:06:17;28.10;67.90
8957;DHT22;4513;50.054;8.230;2022-07-26T11:08:46;27.60;69.80
8957;DHT22;4513;50.054;8.230;2022-07-26T11:11:27;27.00;71.30
8957;DHT22;4513;50.054;8.230;2022-07-26T11:14:06;26.80;72.30
8957;DHT22;4513;50.054;8.230;2022-07-26T11:16:37;26.60;71.80
8957;DHT22;4513;50.054;8.230;2022-07-26T11:19:12;26.50;71.50
8957;DHT22;4513;50.054;8.230;2022-07-26T11:21:40;26.50;70.70
8957;DHT22;4513;50.054;8.230;2022-07-26T11:24:07;26.40;72.70
8957;DHT22;4513;50.054;8.230;2022-07-26T11:26:41;26.30;71.90
8957;DHT22;4513;50.054;8.230;2022-07-26T11:29:08;26.10;73.10
8957;DHT22;4513;50.054;8.230;2022-07-26T11:31:37;25.90;75.70
8957;DHT22;4513;50.054;8.230;2022-07-26T11:34:05;25.80;77.20
8957;DHT22;4513;50.054;8.230;2022-07-26T11:36:37;25.70;78.50
8957;DHT22;4513;50.054;8.230;2022-07-26T11:39:05;25.80;77.60
8957;DHT22;4513;50.054;8.230;2022-07-26T11:41:33;26.00;78.10
8957;DHT22;4513;50.054;8.230;2022-07-26T11:44:02;25.90;78.00
8957;DHT22;4513;50.054;8.230;2022-07-26T11:46:34;25.80;78.00
8957;DHT22;4513;50.054;8.230;2022-07-26T11:49:03;25.70;77.70
8957;DHT22;4513;50.054;8.230;2022-07-26T11:51:31;25.70;76.90
8957;DHT22;4513;50.054;8.230;2022-07-26T11:54:02;25.70;77.60
8957;DHT22;4513;50.054;8.230;2022-07-26T11:56:29;25.70;75.70
8957;DHT22;4513;50.054;8.230;2022-07-26T11:58:57;25.90;75.00
8957;DHT22;4513;50.054;8.230;2022-07-26T12:01:29;26.30;74.50
8957;DHT22;4513;50.054;8.230;2022-07-26T12:03:56;26.80;73.50
8957;DHT22;4513;50.054;8.230;2022-07-26T12:06:24;27.30;71.90
8957;DHT22;4513;50.054;8.230;2022-07-26T12:08:54;27.40;70.70
8957;DHT22;4513;50.054;8.230;2022-07-26T12:11:23;27.10;70.80
8957;DHT22;4513;50.054;8.230;2022-07-26T12:13:53;26.90;72.50
8957;DHT22;4513;50.054;8.230;2022-07-26T12:16:49;26.60;71.80
8957;DHT22;4513;50.054;8.230;2022-07-26T12:19:27;26.80;70.50
8957;DHT22;4513;50.054;8.230;2022-07-26T12:22:05;27.10;72.90
8957;DHT22;4513;50.054;8.230;2022-07-26T12:24:35;27.60;71.90
8957;DHT22;4513;50.054;8.230;2022-07-26T12:27:06;28.00;72.10
8957;DHT22;4513;50.054;8.230;2022-07-26T12:29:33;27.70;72.30
8957;DHT22;4513;50.054;8.230;2022-07-26T12:32:05;27.20;73.40
8957;DHT22;4513;50.054;8.230;2022-07-26T12:34:32;26.50;73.90
8957;DHT22;4513;50.054;8.230;2022-07-26T12:37:07;26.00;73.90
8957;DHT22;4513;50.054;8.230;2022-07-26T12:39:35;26.00;74.10
8957;DHT22;4513;50.054;8.230;2022-07-26T12:42:24;25.90;74.90
8957;DHT22;4513;50.054;8.230;2022-07-26T12:44:51;25.80;75.40
8957;DHT22;4513;50.054;8.230;2022-07-26T12:47:19;25.80;74.90
8957;DHT22;4513;50.054;8.230;2022-07-26T12:49:46;26.30;74.10
8957;DHT22;4513;50.054;8.230;2022-07-26T12:52:14;26.50;73.40
8957;DHT22;4513;50.054;8.230;2022-07-26T12:54:43;26.80;72.30
8957;DHT22;4513;50.054;8.230;2022-07-26T12:57:10;27.20;73.40
8957;DHT22;4513;50.054;8.230;2022-07-26T12:59:37;27.50;73.70
8957;DHT22;4513;50.054;8.230;2022-07-26T13:02:04;27.60;71.70
8957;DHT22;4513;50.054;8.230;2022-07-26T13:04:33;27.30;73.30
8957;DHT22;4513;50.054;8.230;2022-07-26T13:07:02;26.90;73.80
8957;DHT22;4513;50.054;8.230;2022-07-26T13:09:29;26.60;74.40
8957;DHT22;4513;50.054;8.230;2022-07-26T13:11:57;26.40;74.70
8957;DHT22;4513;50.054;8.230;2022-07-26T13:14:25;26.10;76.00
8957;DHT22;4513;50.054;8.230;2022-07-26T13:16:52;25.90;76.90
8957;DHT22;4513;50.054;8.230;2022-07-26T13:19:19;26.30;76.10
8957;DHT22;4513;50.054;8.230;2022-07-26T13:21:47;26.70;74.70
8957;DHT22;4513;50.054;8.230;2022-07-26T13:24:14;27.20;74.30
8957;DHT22;4513;50.054;8.230;2022-07-26T13:26:41;27.70;72.70
8957;DHT22;4513;50.054;8.230;2022-07-26T13:29:08;27.90;70.90
8957;DHT22;4513;50.054;8.230;2022-07-26T13:31:36;27.60;71.70
8957;DHT22;4513;50.054;8.230;2022-07-26T13:34:03;27.20;71.20
8957;DHT22;4513;50.054;8.230;2022-07-26T13:36:30;26.80;72.30
8957;DHT22;4513;50.054;8.230;2022-07-26T13:38:59;26.40;73.70
8957;DHT22;4513;50.054;8.230;2022-07-26T13:41:26;26.40;74.00
8957;DHT22;4513;50.054;8.230;2022-07-26T13:43:54;26.40;73.00
8957;DHT22;4513;50.054;8.230;2022-07-26T13:46:22;26.30;73.90
8957;DHT22;4513;50.054;8.230;2022-07-26T13:48:51;26.30;73.80
8957;DHT22;4513;50.054;8.230;2022-07-26T13:51:18;26.30;72.50
8957;DHT22;4513;50.054;8.230;2022-07-26T13:53:45;26.30;72.40
8957;DHT22;4513;50.054;8.230;2022-07-26T13:56:13;26.30;71.80
8957;DHT22;4513;50.054;8.230;2022-07-26T13:58:40;26.40;72.60
8957;DHT22;4513;50.054;8.230;2022-07-26T14:01:07;26.70;70.60
8957;DHT22;4513;50.054;8.230;2022-07-26T14:03:34;27.00;71.20
8957;DHT22;4513;50.054;8.230;2022-07-26T14:06:01;27.30;70.50
8957;DHT22;4513;50.054;8.230;2022-07-26T14:08:27;27.30;69.30
8957;DHT22;4513;50.054;8.230;2022-07-26T14:10:54;27.30;69.50
8957;DHT22;4513;50.054;8.230;2022-07-26T14:13:23;27.10;69.90
8957;DHT22;4513;50.054;8.230;2022-07-26T14:15:49;26.80;69.60
8957;DHT22;4513;50.054;8.230;2022-07-26T14:18:16;26.80;69.90
8957;DHT22;4513;50.054;8.230;2022-07-26T14:20:43;26.80;70.70
8957;DHT22;4513;50.054;8.230;2022-07-26T14:23:10;27.10;71.40
8957;DHT22;4513;50.054;8.230;2022-07-26T14:25:37;27.20;71.30
8957;DHT22;4513;50.054;8.230;2022-07-26T14:28:04;27.10;70.50
8957;DHT22;4513;50.054;8.230;2022-07-26T14:30:32;26.80;70.90
8957;DHT22;4513;50.054;8.230;2022-07-26T14:33:00;26.50;73.50
8957;DHT22;4513;50.054;8.230;2022-07-26T14:35:27;26.40;73.50
8957;DHT22;4513;50.054;8.230;2022-07-26T14:37:54;26.20;74.50
8957;DHT22;4513;50.054;8.230;2022-07-26T14:40:20;26.30;73.20
8957;DHT22;4513;50.054;8.230;2022-07-26T14:42:47;26.40;73.20
8957;DHT22;4513;50.054;8.230;2022-07-26T14:45:15;26.40;73.30
8957;DHT22;4513;50.054;8.230;2022-07-26T14:47:43;26.40;73.50
8957;DHT22;4513;50.054;8.230;2022-07-26T14:50:11;26.50;75.00
8957;DHT22;4513;50.054;8.230;2022-07-26T14:52:39;26.60;73.50
8957;DHT22;4513;50.054;8.230;2022-07-26T14:55:07;26.80;75.50
8957;DHT22;4513;50.054;8.230;2022-07-26T14:57:34;26.80;73.90
8957;DHT22;4513;50.054;8.230;2022-07-26T15:00:03;27.10;73.80
8957;DHT22;4513;50.054;8.230;2022-07-26T15:02:30;27.20;72.70
8957;DHT22;4513;50.054;8.230;2022-07-26T15:04:59;27.10;72.20
8957;DHT22;4513;50.054;8.230;2022-07-26T15:07:25;27.00;72.90
8957;DHT22;4513;50.054;8.230;2022-07-26T15:09:52;26.90;73.10
8957;DHT22;4513;50.054;8.230;2022-07-26T15:12:19;26.80;73.10
8957;DHT22;4513;50.054;8.230;2022-07-26T15:14:46;26.60;73.00
8957;DHT22;4513;50.054;8.230;2022-07-26T15:17:13;26.40;73.60
8957;DHT22;4513;50.054;8.230;2022-07-26T15:19:40;26.20;74.40
8957;DHT22;4513;50.054;8.230;2022-07-26T15:22:08;26.00;73.90
8957;DHT22;4513;50.054;8.230;2022-07-26T15:24:36;25.80;73.20
8957;DHT22;4513;50.054;8.230;2022-07-26T15:27:03;25.70;73.60
8957;DHT22;4513;50.054;8.230;2022-07-26T15:29:30;25.60;74.10
8957;DHT22;4513;50.054;8.230;2022-07-26T15:31:57;25.70;74.20
8957;DHT22;4513;50.054;8.230;2022-07-26T15:34:24;26.00;74.20
8957;DHT22;4513;50.054;8.230;2022-07-26T15:36:51;26.40;73.00
8957;DHT22;4513;50.054;8.230;2022-07-26T15:39:19;26.40;71.20
8957;DHT22;4513;50.054;8.230;2022-07-26T15:41:47;26.40;70.20
8957;DHT22;4513;50.054;8.230;2022-07-26T15:44:15;26.30;71.10
8957;DHT22;4513;50.054;8.230;2022-07-26T15:46:42;26.30;71.30
8957;DHT22;4513;50.054;8.230;2022-07-26T15:49:10;26.20;72.40
8957;DHT22;4513;50.054;8.230;2022-07-26T15:51:38;26.40;71.80
8957;DHT22;4513;50.054;8.230;2022-07-26T15:54:08;26.60;70.30
8957;DHT22;4513;50.054;8.230;2022-07-26T15:56:36;26.50;70.20
8957;DHT22;4513;50.054;8.230;2022-07-26T15:59:04;26.40;70.80
8957;DHT22;4513;50.054;8.230;2022-07-26T16:01:31;26.50;71.60
8957;DHT22;4513;50.054;8.230;2022-07-26T16:03:58;26.70;71.30
8957;DHT22;4513;50.054;8.230;2022-07-26T16:06:25;26.80;69.30
8957;DHT22;4513;50.054;8.230;2022-07-26T16:08:52;26.90;69.90
8957;DHT22;4513;50.054;8.230;2022-07-26T16:11:19;26.90;68.60
8957;DHT22;4513;50.054;8.230;2022-07-26T16:13:48;26.90;69.30
8957;DHT22;4513;50.054;8.230;2022-07-26T16:16:15;27.00;69.90
8957;DHT22;4513;50.054;8.230;2022-07-26T16:18:41;27.00;68.60